createdAt,value
2022-09-26T00:00:38.024Z,52.03
2022-09-26T00:03:15.265Z,48.60
2022-09-26T00:05:56.677Z,51.25
2022-09-26T00:08:38.096Z,54.33
2022-09-26T00:11:09.165Z,53.15
2022-09-26T00:13:45.499Z,53.22
2022-09-26T00:16:18.945Z,56.85
2022-09-26T00:18:59.571Z,60.38
2022-09-26T00:21:39.617Z,58.47
2022-09-26T00:24:20.326Z,59.20
2022-09-26T00:26:56.069Z,56.92
2022-09-26T00:29:37.396Z,52.65
2022-09-26T00:32:15.214Z,54.72
2022-09-26T00:34:59.419Z,53.22
2022-09-26T00:37:37.036Z,53.30
2022-09-26T00:40:16.435Z,55.78
2022-09-26T00:42:57.768Z,52.22
2022-09-26T00:45:50.026Z,52.72
2022-09-26T00:48:30.443Z,54.65
2022-09-26T00:51:09.009Z,50.05
2022-09-26T00:53:56.512Z,49.22
2022-09-26T00:56:39.446Z,46.65
2022-09-26T00:59:31.720Z,45.85
2022-09-26T01:02:15.039Z,44.53
2022-09-26T01:05:00.846Z,47.65
2022-09-26T01:07:38.517Z,45.40
2022-09-26T01:10:12.835Z,43.60
2022-09-26T01:12:48.518Z,41.88
2022-09-26T01:15:25.204Z,44.33
2022-09-26T01:17:59.698Z,45.13
2022-09-26T01:20:38.774Z,48.03
2022-09-26T01:23:44.371Z,47.83
2022-09-26T01:29:40.582Z,46.35
2022-09-26T01:32:38.123Z,52.55
2022-09-26T01:36:06.931Z,54.42
2022-09-26T01:38:56.467Z,53.67
2022-09-26T01:41:54.334Z,56.00
2022-09-26T01:44:44.321Z,52.63
2022-09-26T01:47:30.496Z,51.88
2022-09-26T01:50:19.431Z,52.30
2022-09-26T01:53:17.463Z,51.72
2022-09-26T01:56:03.539Z,51.83
2022-09-26T01:58:58.714Z,48.27
2022-09-26T02:01:35.862Z,51.60
2022-09-26T02:04:28.475Z,51.00
2022-09-26T02:07:18.807Z,50.47
2022-09-26T02:10:00.286Z,49.45
2022-09-26T02:12:40.216Z,54.20
2022-09-26T02:15:19.254Z,50.15
2022-09-26T02:18:17.018Z,53.80
2022-09-26T02:21:12.255Z,54.85
2022-09-26T02:23:51.649Z,51.20
2022-09-26T02:26:24.464Z,49.72
2022-09-26T02:28:59.769Z,46.42
2022-09-26T02:31:37.146Z,50.65
2022-09-26T02:34:15.323Z,52.63
2022-09-26T02:36:58.650Z,52.03
2022-09-26T02:39:33.336Z,52.22
2022-09-26T02:42:52.618Z,52.72
2022-09-26T02:45:33.047Z,54.67
2022-09-26T02:48:37.646Z,54.45
2022-09-26T02:51:22.593Z,57.10
2022-09-26T02:54:29.799Z,56.65
2022-09-26T02:57:23.352Z,56.03
2022-09-26T03:00:22.143Z,59.15
2022-09-26T03:03:29.221Z,56.47
2022-09-26T03:06:03.029Z,51.95
2022-09-26T03:08:49.565Z,56.45
2022-09-26T03:11:25.230Z,51.90
2022-09-26T03:14:04.269Z,49.42
2022-09-26T03:16:48.734Z,49.42
2022-09-26T03:19:33.580Z,50.10
2022-09-26T03:22:14.898Z,47.05
2022-09-26T03:24:57.596Z,46.22
2022-09-26T03:27:34.710Z,46.20
2022-09-26T03:30:40.068Z,46.58
2022-09-26T03:33:38.363Z,42.42
2022-09-26T03:36:14.422Z,46.42
2022-09-26T03:38:45.040Z,43.03
2022-09-26T03:41:45.237Z,45.35
2022-09-26T03:44:32.679Z,44.88
2022-09-26T03:50:18.198Z,47.72
2022-09-26T03:53:07.504Z,43.97
2022-09-26T03:55:53.765Z,45.83
2022-09-26T03:58:41.209Z,43.22
2022-09-26T04:01:15.129Z,43.38
2022-09-26T04:03:56.760Z,51.28
2022-09-26T04:06:34.821Z,48.03
2022-09-26T04:09:16.540Z,43.92
2022-09-26T04:11:56.997Z,44.63
2022-09-26T04:17:21.641Z,40.97
2022-09-26T04:19:54.217Z,42.33
2022-09-26T04:22:51.342Z,42.83
2022-09-26T04:25:36.701Z,44.45
2022-09-26T04:28:17.852Z,47.65
2022-09-26T04:30:53.004Z,47.03
2022-09-26T04:33:25.826Z,48.05
2022-09-26T04:36:14.441Z,47.28
2022-09-26T04:38:56.131Z,48.65
2022-09-26T04:41:38.886Z,44.92
2022-09-26T04:44:15.517Z,47.47
2022-09-26T04:46:57.164Z,46.22
2022-09-26T04:52:33.829Z,46.55
2022-09-26T04:55:13.958Z,45.63
2022-09-26T04:57:50.080Z,41.88
2022-09-26T05:00:25.505Z,40.03
2022-09-26T05:03:05.977Z,43.72
2022-09-26T05:05:55.824Z,45.13
2022-09-26T05:08:31.748Z,46.88
2022-09-26T05:11:21.027Z,45.40
2022-09-26T05:14:07.894Z,46.65
2022-09-26T05:16:56.151Z,49.17
2022-09-26T05:19:33.019Z,47.60
2022-09-26T05:22:32.956Z,47.45
2022-09-26T05:28:16.550Z,41.70
2022-09-26T05:31:10.187Z,39.30
2022-09-26T05:36:42.905Z,37.75
2022-09-26T05:39:42.905Z,41.33
2022-09-26T05:42:28.022Z,46.95
2022-09-26T05:45:09.504Z,45.92
2022-09-26T05:48:00.543Z,45.63
2022-09-26T05:50:43.580Z,43.58
2022-09-26T05:53:31.008Z,43.95
2022-09-26T05:56:07.386Z,44.83
2022-09-26T05:59:05.012Z,41.05
2022-09-26T06:01:55.019Z,40.80
2022-09-26T06:04:47.792Z,42.45
2022-09-26T06:07:58.794Z,38.40
2022-09-26T06:11:00.249Z,38.28
2022-09-26T06:13:43.897Z,39.70
2022-09-26T06:16:33.601Z,43.22
2022-09-26T06:19:22.059Z,42.03
2022-09-26T06:22:14.240Z,41.72
2022-09-26T06:24:59.264Z,40.72
2022-09-26T06:27:49.371Z,37.97
2022-09-26T06:30:29.320Z,41.03
2022-09-26T06:33:23.719Z,39.40
2022-09-26T06:36:42.991Z,43.55
2022-09-26T06:39:24.015Z,45.63
2022-09-26T06:42:05.918Z,46.80
2022-09-26T06:45:24.917Z,42.00
2022-09-26T06:48:25.050Z,43.92
2022-09-26T06:51:20.240Z,46.78
2022-09-26T06:54:16.078Z,46.22
2022-09-26T06:56:48.336Z,45.90
2022-09-26T06:59:40.465Z,48.25
2022-09-26T07:02:38.210Z,48.58
2022-09-26T07:05:46.457Z,50.40
2022-09-26T07:09:00.417Z,46.50
2022-09-26T07:12:16.362Z,47.13
2022-09-26T07:14:57.357Z,48.97
2022-09-26T07:17:47.302Z,53.58
2022-09-26T07:20:53.238Z,49.95
2022-09-26T07:23:46.673Z,46.95
2022-09-26T07:26:21.015Z,48.55
2022-09-26T07:28:54.321Z,48.08
2022-09-26T07:31:40.266Z,49.97
2022-09-26T07:34:18.733Z,51.20
2022-09-26T07:37:04.736Z,48.90
2022-09-26T07:39:52.647Z,50.22
2022-09-26T07:42:27.381Z,51.08
2022-09-26T07:45:27.922Z,48.55
2022-09-26T07:48:23.379Z,34.83
2022-09-26T07:51:31.069Z,34.30
2022-09-26T07:54:01.457Z,33.85
2022-09-26T07:56:58.671Z,33.47
2022-09-26T07:59:56.218Z,33.30
2022-09-26T08:03:01.054Z,36.25
2022-09-26T08:05:46.576Z,37.88
2022-09-26T08:08:37.297Z,34.80
2022-09-26T08:11:31.519Z,35.75
2022-09-26T08:14:34.248Z,36.17
2022-09-26T08:17:40.057Z,38.20
2022-09-26T08:20:15.359Z,37.33
2022-09-26T08:25:50.804Z,37.55
2022-09-26T08:28:42.888Z,39.38
2022-09-26T08:31:26.370Z,40.92
2022-09-26T08:34:04.379Z,42.95
2022-09-26T08:36:42.816Z,50.40
2022-09-26T08:39:24.911Z,49.40
2022-09-26T08:42:20.517Z,41.03
2022-09-26T08:45:49.828Z,35.40
2022-09-26T08:49:01.738Z,38.33
2022-09-26T08:57:31.041Z,29.92
2022-09-26T09:00:25.366Z,29.15
2022-09-26T09:03:26.408Z,29.70
2022-09-26T09:06:07.379Z,28.25
2022-09-26T09:08:51.014Z,28.85
2022-09-26T09:11:51.732Z,28.20
2022-09-26T09:15:23.290Z,28.45
2022-09-26T09:18:25.676Z,20.55
2022-09-26T09:21:40.823Z,21.70
2022-09-26T09:24:55.059Z,24.88
2022-09-26T09:27:54.986Z,25.02
2022-09-26T09:30:46.131Z,26.88
2022-09-26T09:33:25.746Z,24.45
2022-09-26T09:36:20.331Z,21.90
2022-09-26T09:39:37.224Z,21.50
2022-09-26T09:42:41.977Z,16.25
2022-09-26T09:45:35.141Z,15.88
2022-09-26T09:48:20.679Z,17.98
2022-09-26T09:51:15.653Z,17.48
2022-09-26T09:53:56.301Z,19.80
2022-09-26T09:56:52.165Z,24.45
2022-09-26T10:00:04.482Z,24.65
2022-09-26T10:03:47.008Z,26.10
2022-09-26T10:06:45.916Z,21.08
2022-09-26T10:09:46.352Z,28.55
2022-09-26T10:13:07.185Z,27.98
2022-09-26T10:16:10.834Z,26.60
2022-09-26T10:19:14.085Z,27.17
2022-09-26T10:21:48.751Z,28.15
2022-09-26T10:24:49.905Z,27.17
2022-09-26T10:27:37.881Z,30.73
2022-09-26T10:34:12.665Z,27.38
2022-09-26T10:37:00.898Z,22.02
2022-09-26T10:40:01.828Z,18.30
2022-09-26T10:42:43.336Z,18.30
2022-09-26T10:48:33.806Z,15.02
2022-09-26T10:52:01.611Z,13.68
2022-09-26T10:54:45.861Z,11.88
2022-09-26T10:57:41.153Z,11.40
2022-09-26T11:00:17.236Z,12.38
2022-09-26T11:02:56.562Z,12.25
2022-09-26T11:05:57.991Z,12.73
2022-09-26T11:08:39.125Z,11.75
2022-09-26T11:11:45.058Z,11.25
2022-09-26T11:14:28.234Z,9.98
2022-09-26T11:17:21.673Z,10.93
2022-09-26T11:20:07.401Z,8.85
2022-09-26T11:23:00.714Z,7.63
2022-09-26T11:25:57.910Z,8.27
2022-09-26T11:28:49.111Z,7.68
2022-09-26T11:31:46.301Z,8.13
2022-09-26T11:34:56.647Z,7.10
2022-09-26T11:37:47.670Z,7.20
2022-09-26T11:40:42.667Z,9.10
2022-09-26T11:43:27.776Z,8.52
2022-09-26T11:46:35.274Z,8.05
2022-09-26T11:49:48.808Z,7.60
2022-09-26T11:57:01.414Z,7.90
2022-09-26T12:00:10.190Z,7.55
2022-09-26T12:03:23.697Z,7.28
2022-09-26T12:06:20.116Z,7.25
2022-09-26T12:09:26.231Z,7.18
2022-09-26T12:12:29.237Z,6.82
2022-09-26T12:15:27.796Z,6.70
2022-09-26T12:18:26.164Z,7.00
2022-09-26T12:21:24.245Z,6.95
2022-09-26T12:24:38.358Z,6.85
2022-09-26T12:28:01.456Z,6.05
2022-09-26T12:31:10.220Z,6.13
2022-09-26T12:34:02.870Z,6.78
2022-09-26T12:36:54.011Z,6.30
2022-09-26T12:39:54.041Z,7.03
2022-09-26T12:43:25.790Z,6.40
2022-09-26T12:46:09.429Z,5.63
2022-09-26T12:48:57.045Z,4.35
2022-09-26T12:51:42.960Z,4.93
2022-09-26T12:54:44.303Z,4.38
2022-09-26T12:57:38.679Z,4.85
2022-09-26T13:00:36.404Z,4.35
2022-09-26T13:03:32.885Z,4.32
2022-09-26T13:06:32.746Z,4.53
2022-09-26T13:09:25.360Z,4.57
2022-09-26T13:12:31.103Z,4.85
2022-09-26T13:15:20.309Z,4.72
2022-09-26T13:18:04.388Z,4.22
2022-09-26T13:20:53.093Z,4.65
2022-09-26T13:23:36.774Z,4.60
2022-09-26T13:26:11.895Z,4.20
2022-09-26T13:29:06.823Z,5.22
2022-09-26T13:31:50.682Z,5.20
2022-09-26T13:34:41.945Z,5.40
2022-09-26T13:37:50.221Z,4.35
2022-09-26T13:40:43.979Z,3.45
2022-09-26T13:43:24.508Z,3.90
2022-09-26T13:46:42.597Z,4.32
2022-09-26T13:49:41.083Z,5.07
2022-09-26T13:52:34.331Z,4.43
2022-09-26T13:55:19.842Z,4.60
2022-09-26T13:58:09.075Z,4.63
2022-09-26T14:00:49.297Z,4.80
2022-09-26T14:03:42.851Z,4.45
2022-09-26T14:06:32.299Z,4.70
2022-09-26T14:09:27.943Z,4.40
2022-09-26T14:12:36.924Z,4.00
2022-09-26T14:15:18.559Z,4.57
2022-09-26T14:18:18.185Z,3.85
2022-09-26T14:21:09.285Z,4.32
2022-09-26T14:23:51.795Z,3.97
2022-09-26T14:26:32.069Z,4.15
2022-09-26T14:29:41.489Z,4.10
2022-09-26T14:33:10.783Z,3.88
2022-09-26T14:35:51.544Z,3.88
2022-09-26T14:38:31.683Z,3.83
2022-09-26T14:41:17.086Z,3.45
2022-09-26T14:43:54.028Z,3.88
2022-09-26T14:46:41.655Z,3.97
2022-09-26T14:49:26.688Z,3.63
2022-09-26T14:52:14.016Z,3.53
2022-09-26T14:54:58.661Z,3.13
2022-09-26T14:57:36.308Z,3.58
2022-09-26T15:00:38.224Z,3.58
2022-09-26T15:03:31.843Z,3.13
2022-09-26T15:06:12.399Z,3.00
2022-09-26T15:08:49.925Z,3.42
2022-09-26T15:11:57.957Z,3.55
2022-09-26T15:15:16.857Z,3.38
2022-09-26T15:17:58.249Z,3.42
2022-09-26T15:20:46.056Z,3.78
2022-09-26T15:26:27.868Z,3.30
2022-09-26T15:29:17.609Z,3.53
2022-09-26T15:35:02.656Z,3.63
2022-09-26T15:37:42.373Z,3.80
2022-09-26T15:41:08.034Z,3.42
2022-09-26T15:44:10.198Z,3.63
2022-09-26T15:51:04.328Z,3.50
2022-09-26T15:53:51.582Z,3.08
2022-09-26T15:56:42.797Z,3.35
2022-09-26T15:59:42.365Z,2.85
2022-09-26T16:03:05.130Z,3.58
2022-09-26T16:06:03.496Z,3.65
2022-09-26T16:08:40.591Z,3.65
2022-09-26T16:11:19.468Z,3.85
2022-09-26T16:13:53.835Z,4.30
2022-09-26T16:16:32.032Z,3.90
2022-09-26T16:19:29.320Z,4.57
2022-09-26T16:22:54.556Z,5.68
2022-09-26T16:25:44.457Z,6.50
2022-09-26T16:28:21.130Z,7.25
2022-09-26T16:31:08.639Z,8.73
2022-09-26T16:33:51.513Z,6.75
2022-09-26T16:36:36.965Z,6.35
2022-09-26T16:39:24.002Z,5.80
2022-09-26T16:42:18.999Z,5.38
2022-09-26T16:44:57.769Z,4.65
2022-09-26T16:47:47.879Z,4.78
2022-09-26T16:50:40.406Z,5.03
2022-09-26T16:53:39.122Z,5.13
2022-09-26T16:56:29.805Z,5.95
2022-09-26T16:59:11.234Z,5.63
2022-09-26T17:01:55.317Z,5.43
2022-09-26T17:04:31.321Z,5.80
2022-09-26T17:07:14.535Z,5.88
2022-09-26T17:10:07.799Z,6.20
2022-09-26T17:12:51.601Z,5.88
2022-09-26T17:15:32.999Z,6.28
2022-09-26T17:18:11.351Z,5.68
2022-09-26T17:20:47.378Z,6.70
2022-09-26T17:23:45.305Z,7.18
2022-09-26T17:26:26.201Z,6.03
2022-09-26T17:29:08.581Z,7.00
2022-09-26T17:31:55.608Z,8.10
2022-09-26T17:34:37.027Z,9.48
2022-09-26T17:37:26.650Z,10.52
2022-09-26T17:40:04.039Z,11.23
2022-09-26T17:42:39.620Z,14.30
2022-09-26T17:45:17.400Z,18.75
2022-09-26T17:48:10.325Z,22.30
2022-09-26T17:53:37.824Z,31.98
2022-09-26T17:56:21.816Z,29.55
2022-09-26T17:59:04.231Z,33.35
2022-09-26T18:01:39.744Z,32.13
2022-09-26T18:04:23.098Z,40.80
2022-09-26T18:07:03.394Z,38.65
2022-09-26T18:09:42.245Z,41.15
2022-09-26T18:12:24.578Z,35.63
2022-09-26T18:15:03.977Z,36.53
2022-09-26T18:17:43.777Z,40.13
2022-09-26T18:20:22.631Z,36.17
2022-09-26T18:22:58.774Z,34.50
2022-09-26T18:25:39.993Z,33.80
2022-09-26T18:28:16.444Z,32.08
2022-09-26T18:30:59.209Z,30.90
2022-09-26T18:33:39.281Z,29.85
2022-09-26T18:36:36.295Z,26.90
2022-09-26T18:39:17.627Z,25.27
2022-09-26T18:42:12.224Z,26.27
2022-09-26T18:44:52.519Z,26.55
2022-09-26T18:47:31.312Z,27.55
2022-09-26T18:50:29.486Z,26.90
2022-09-26T18:53:10.683Z,27.48
2022-09-26T18:56:02.107Z,27.48
2022-09-26T18:58:38.226Z,25.88
2022-09-26T19:01:16.977Z,25.05
2022-09-26T19:04:00.061Z,24.88
2022-09-26T19:06:41.795Z,26.48
2022-09-26T19:09:24.472Z,25.58
2022-09-26T19:12:00.622Z,27.90
2022-09-26T19:14:35.774Z,37.28
2022-09-26T19:17:17.455Z,43.45
2022-09-26T19:19:52.915Z,46.42
2022-09-26T19:22:28.359Z,48.42
2022-09-26T19:25:04.499Z,45.65
2022-09-26T19:27:44.488Z,39.85
2022-09-26T19:30:21.094Z,43.72
2022-09-26T19:32:56.635Z,39.35
2022-09-26T19:35:30.457Z,37.58
2022-09-26T19:38:16.272Z,40.15
2022-09-26T19:40:53.441Z,40.00
2022-09-26T19:43:28.680Z,39.03
2022-09-26T19:46:08.965Z,41.50
2022-09-26T19:48:42.836Z,44.90
2022-09-26T19:51:20.584Z,39.95
2022-09-26T19:54:01.446Z,41.72
2022-09-26T19:56:41.075Z,46.08
2022-09-26T19:59:27.353Z,46.80
2022-09-26T20:02:14.149Z,46.00
2022-09-26T20:05:03.637Z,51.92
2022-09-26T20:08:02.990Z,52.40
2022-09-26T20:10:44.138Z,57.85
2022-09-26T20:13:17.660Z,56.65
2022-09-26T20:15:55.812Z,50.93
2022-09-26T20:18:37.011Z,51.10
2022-09-26T20:21:14.754Z,45.13
2022-09-26T20:23:51.625Z,41.55
2022-09-26T20:26:30.380Z,42.20
2022-09-26T20:29:17.068Z,50.45
2022-09-26T20:31:53.202Z,50.10
2022-09-26T20:34:30.352Z,49.15
2022-09-26T20:37:14.115Z,46.70
2022-09-26T20:39:52.055Z,45.22
2022-09-26T20:42:28.290Z,45.88
2022-09-26T20:45:03.728Z,48.50
2022-09-26T20:47:45.810Z,48.08
2022-09-26T20:50:33.825Z,47.38
2022-09-26T20:53:16.447Z,45.63
2022-09-26T20:56:04.232Z,46.65
2022-09-26T20:58:43.984Z,49.55
2022-09-26T21:01:26.922Z,48.28
2022-09-26T21:04:02.002Z,46.25
2022-09-26T21:06:35.211Z,43.58
2022-09-26T21:09:18.396Z,44.63
2022-09-26T21:11:51.212Z,43.85
2022-09-26T21:14:30.298Z,47.55
2022-09-26T21:17:06.430Z,47.60
2022-09-26T21:19:41.898Z,44.67
2022-09-26T21:22:39.990Z,43.70
2022-09-26T21:25:32.241Z,44.30
2022-09-26T21:28:26.834Z,43.92
2022-09-26T21:31:11.599Z,44.17
2022-09-26T21:33:51.068Z,43.45
2022-09-26T21:36:38.085Z,43.00
2022-09-26T21:39:14.536Z,44.22
2022-09-26T21:41:56.046Z,43.00
2022-09-26T21:44:55.142Z,42.47
2022-09-26T21:47:28.271Z,43.28
2022-09-26T21:53:09.049Z,41.25
2022-09-26T21:55:47.674Z,40.55
2022-09-26T21:58:47.139Z,42.78
2022-09-26T22:01:21.561Z,39.33
2022-09-26T22:03:59.902Z,42.95
2022-09-26T22:06:33.609Z,41.42
2022-09-26T22:11:50.963Z,38.67
2022-09-26T22:14:29.250Z,41.70
2022-09-26T22:17:08.539Z,41.88
2022-09-26T22:19:53.835Z,43.17
2022-09-26T22:22:29.408Z,45.40
2022-09-26T22:25:05.214Z,45.15
2022-09-26T22:27:40.363Z,48.63
2022-09-26T22:30:13.509Z,45.60
2022-09-26T22:32:46.048Z,49.80
2022-09-26T22:35:22.177Z,47.65
2022-09-26T22:37:57.708Z,45.75
2022-09-26T22:40:35.859Z,46.15
2022-09-26T22:43:11.496Z,46.92
2022-09-26T22:45:46.725Z,51.55
2022-09-26T22:48:27.080Z,48.60
2022-09-26T22:51:02.650Z,50.40
2022-09-26T22:53:39.332Z,50.00
2022-09-26T22:56:18.566Z,50.80
2022-09-26T22:58:56.171Z,46.83
2022-09-26T23:01:43.017Z,49.13
2022-09-26T23:04:15.515Z,47.95
2022-09-26T23:06:53.759Z,49.72
2022-09-26T23:09:32.139Z,49.10
2022-09-26T23:12:13.274Z,46.20
2022-09-26T23:14:49.102Z,45.45
2022-09-26T23:17:25.328Z,53.40
2022-09-26T23:20:11.896Z,47.95
2022-09-26T23:22:47.238Z,48.33
2022-09-26T23:25:19.621Z,49.10
2022-09-26T23:27:54.903Z,47.25
2022-09-26T23:30:31.757Z,47.70
2022-09-26T23:33:14.732Z,45.58
2022-09-26T23:35:57.600Z,44.92
2022-09-26T23:38:33.140Z,47.97
2022-09-26T23:41:03.508Z,50.15
2022-09-26T23:43:39.228Z,49.72
2022-09-26T23:46:17.526Z,51.38
2022-09-26T23:49:14.288Z,48.42
2022-09-26T23:51:58.482Z,44.70
2022-09-26T23:54:47.497Z,49.58
2022-09-26T23:57:23.513Z,50.47
2022-09-26T23:59:59.669Z,48.03
